sensor_id;sensor_type;location;lat;lon;timestamp;temperature;humidity
80937;DHT22;70395;51.382;7.074;2024-02-04T00:00:07;12.90;75.10
80937;DHT22;70395;51.382;7.074;2024-02-04T00:02:33;12.90;75.20
80937;DHT22;70395;51.382;7.074;2024-02-04T00:04:59;12.90;75.20
80937;DHT22;70395;51.382;7.074;2024-02-04T00:07:24;12.90;75.20
80937;DHT22;70395;51.382;7.074;2024-02-04T00:09:50;12.90;75.10
80937;DHT22;70395;51.382;7.074;2024-02-04T00:12:16;12.90;75.20
80937;DHT22;70395;51.382;7.074;2024-02-04T00:14:42;12.90;75.20
80937;DHT22;70395;51.382;7.074;2024-02-04T00:17:07;12.90;75.20
80937;DHT22;70395;51.382;7.074;2024-02-04T00:19:33;12.90;75.10
80937;DHT22;70395;51.382;7.074;2024-02-04T00:21:59;12.90;75.10
80937;DHT22;70395;51.382;7.074;2024-02-04T00:24:25;12.90;75.10
80937;DHT22;70395;51.382;7.074;2024-02-04T00:26:51;12.90;75.10
80937;DHT22;70395;51.382;7.074;2024-02-04T00:29:16;12.90;75.10
80937;DHT22;70395;51.382;7.074;2024-02-04T00:31:42;12.90;75.10
80937;DHT22;70395;51.382;7.074;2024-02-04T00:34:08;12.80;75.00
80937;DHT22;70395;51.382;7.074;2024-02-04T00:36:34;12.80;75.20
80937;DHT22;70395;51.382;7.074;2024-02-04T00:38:59;12.80;75.20
80937;DHT22;70395;51.382;7.074;2024-02-04T00:41:25;12.80;75.30
80937;DHT22;70395;51.382;7.074;2024-02-04T00:43:51;12.80;75.50
80937;DHT22;70395;51.382;7.074;2024-02-04T00:46:18;12.80;75.60
80937;DHT22;70395;51.382;7.074;2024-02-04T00:48:45;12.70;75.60
80937;DHT22;70395;51.382;7.074;2024-02-04T00:51:11;12.80;75.90
80937;DHT22;70395;51.382;7.074;2024-02-04T00:53:38;12.70;75.90
80937;DHT22;70395;51.382;7.074;2024-02-04T00:56:05;12.70;76.00
80937;DHT22;70395;51.382;7.074;2024-02-04T00:58:31;12.70;76.20
80937;DHT22;70395;51.382;7.074;2024-02-04T01:00:57;12.70;76.30
80937;DHT22;70395;51.382;7.074;2024-02-04T01:03:22;12.70;76.40
80937;DHT22;70395;51.382;7.074;2024-02-04T01:05:49;12.70;76.40
80937;DHT22;70395;51.382;7.074;2024-02-04T01:08:15;12.70;76.40
80937;DHT22;70395;51.382;7.074;2024-02-04T01:10:41;12.70;76.50
80937;DHT22;70395;51.382;7.074;2024-02-04T01:13:07;12.60;76.30
80937;DHT22;70395;51.382;7.074;2024-02-04T01:15:33;12.60;76.30
80937;DHT22;70395;51.382;7.074;2024-02-04T01:17:59;12.60;76.30
80937;DHT22;70395;51.382;7.074;2024-02-04T01:20:25;12.60;76.30
80937;DHT22;70395;51.382;7.074;2024-02-04T01:22:51;12.60;76.30
80937;DHT22;70395;51.382;7.074;2024-02-04T01:25:17;12.60;76.40
80937;DHT22;70395;51.382;7.074;2024-02-04T01:27:42;12.60;76.50
80937;DHT22;70395;51.382;7.074;2024-02-04T01:30:08;12.60;76.50
80937;DHT22;70395;51.382;7.074;2024-02-04T01:32:34;12.60;76.70
80937;DHT22;70395;51.382;7.074;2024-02-04T01:35:00;12.60;76.70
80937;DHT22;70395;51.382;7.074;2024-02-04T01:37:26;12.60;76.80
80937;DHT22;70395;51.382;7.074;2024-02-04T01:39:52;12.60;77.00
80937;DHT22;70395;51.382;7.074;2024-02-04T01:42:17;12.60;77.10
80937;DHT22;70395;51.382;7.074;2024-02-04T01:44:43;12.60;77.40
80937;DHT22;70395;51.382;7.074;2024-02-04T01:47:09;12.50;77.20
80937;DHT22;70395;51.382;7.074;2024-02-04T01:49:35;12.50;77.30
80937;DHT22;70395;51.382;7.074;2024-02-04T01:52:03;12.50;77.20
80937;DHT22;70395;51.382;7.074;2024-02-04T01:54:31;12.50;77.40
80937;DHT22;70395;51.382;7.074;2024-02-04T01:56:59;12.50;77.40
80937;DHT22;70395;51.382;7.074;2024-02-04T01:59:29;12.50;77.50
80937;DHT22;70395;51.382;7.074;2024-02-04T02:02:05;12.50;77.60
80937;DHT22;70395;51.382;7.074;2024-02-04T02:04:32;12.50;77.60
80937;DHT22;70395;51.382;7.074;2024-02-04T02:06:58;12.60;77.70
80937;DHT22;70395;51.382;7.074;2024-02-04T02:09:28;12.60;77.70
80937;DHT22;70395;51.382;7.074;2024-02-04T02:12:11;12.60;77.70
80937;DHT22;70395;51.382;7.074;2024-02-04T02:14:43;12.60;77.90
80937;DHT22;70395;51.382;7.074;2024-02-04T02:17:14;12.60;77.80
80937;DHT22;70395;51.382;7.074;2024-02-04T02:19:57;12.60;77.90
80937;DHT22;70395;51.382;7.074;2024-02-04T02:22:49;12.60;78.10
80937;DHT22;70395;51.382;7.074;2024-02-04T02:25:19;12.60;78.30
80937;DHT22;70395;51.382;7.074;2024-02-04T02:27:49;12.60;78.20
80937;DHT22;70395;51.382;7.074;2024-02-04T02:30:16;12.60;78.30
80937;DHT22;70395;51.382;7.074;2024-02-04T02:32:47;12.60;78.40
80937;DHT22;70395;51.382;7.074;2024-02-04T02:35:17;12.60;78.50
80937;DHT22;70395;51.382;7.074;2024-02-04T02:40:56;12.60;78.40
80937;DHT22;70395;51.382;7.074;2024-02-04T02:43:25;12.60;78.60
80937;DHT22;70395;51.382;7.074;2024-02-04T02:45:53;12.70;78.30
80937;DHT22;70395;51.382;7.074;2024-02-04T02:48:19;12.60;78.20
80937;DHT22;70395;51.382;7.074;2024-02-04T02:50:47;12.70;78.20
80937;DHT22;70395;51.382;7.074;2024-02-04T02:53:13;12.70;78.20
80937;DHT22;70395;51.382;7.074;2024-02-04T02:55:39;12.70;78.10
80937;DHT22;70395;51.382;7.074;2024-02-04T02:58:06;12.70;78.10
80937;DHT22;70395;51.382;7.074;2024-02-04T03:00:33;12.70;78.00
80937;DHT22;70395;51.382;7.074;2024-02-04T03:02:58;12.70;78.00
80937;DHT22;70395;51.382;7.074;2024-02-04T03:05:24;12.70;78.00
80937;DHT22;70395;51.382;7.074;2024-02-04T03:07:50;12.70;78.00
80937;DHT22;70395;51.382;7.074;2024-02-04T03:10:16;12.80;78.10
80937;DHT22;70395;51.382;7.074;2024-02-04T03:12:42;12.80;78.10
80937;DHT22;70395;51.382;7.074;2024-02-04T03:15:08;12.80;77.90
80937;DHT22;70395;51.382;7.074;2024-02-04T03:17:34;12.80;78.60
80937;DHT22;70395;51.382;7.074;2024-02-04T03:20:00;12.80;77.80
80937;DHT22;70395;51.382;7.074;2024-02-04T03:22:26;12.80;77.70
80937;DHT22;70395;51.382;7.074;2024-02-04T03:24:52;12.80;77.70
80937;DHT22;70395;51.382;7.074;2024-02-04T03:27:18;12.80;77.60
80937;DHT22;70395;51.382;7.074;2024-02-04T03:29:44;12.90;77.70
80937;DHT22;70395;51.382;7.074;2024-02-04T03:32:13;12.90;77.60
80937;DHT22;70395;51.382;7.074;2024-02-04T03:34:41;12.90;77.60
80937;DHT22;70395;51.382;7.074;2024-02-04T03:37:07;12.90;77.50
80937;DHT22;70395;51.382;7.074;2024-02-04T03:39:33;12.90;77.40
80937;DHT22;70395;51.382;7.074;2024-02-04T03:41:59;12.90;77.30
80937;DHT22;70395;51.382;7.074;2024-02-04T03:44:25;13.00;77.40
80937;DHT22;70395;51.382;7.074;2024-02-04T03:46:51;13.00;77.30
80937;DHT22;70395;51.382;7.074;2024-02-04T03:49:18;13.00;77.30
80937;DHT22;70395;51.382;7.074;2024-02-04T03:51:44;13.00;77.30
80937;DHT22;70395;51.382;7.074;2024-02-04T03:54:10;13.00;77.20
80937;DHT22;70395;51.382;7.074;2024-02-04T03:56:36;13.00;77.20
80937;DHT22;70395;51.382;7.074;2024-02-04T03:59:02;13.00;77.20
80937;DHT22;70395;51.382;7.074;2024-02-04T04:01:28;13.00;77.20
80937;DHT22;70395;51.382;7.074;2024-02-04T04:03:53;13.00;77.20
80937;DHT22;70395;51.382;7.074;2024-02-04T04:06:19;13.00;77.10
80937;DHT22;70395;51.382;7.074;2024-02-04T04:08:45;13.00;77.10
80937;DHT22;70395;51.382;7.074;2024-02-04T04:11:11;13.00;77.10
80937;DHT22;70395;51.382;7.074;2024-02-04T04:13:37;13.00;77.10
80937;DHT22;70395;51.382;7.074;2024-02-04T04:16:04;13.00;77.10
80937;DHT22;70395;51.382;7.074;2024-02-04T04:18:31;13.00;77.10
80937;DHT22;70395;51.382;7.074;2024-02-04T04:20:57;13.00;77.10
80937;DHT22;70395;51.382;7.074;2024-02-04T04:23:23;13.00;77.10
80937;DHT22;70395;51.382;7.074;2024-02-04T04:25:49;13.00;77.10
80937;DHT22;70395;51.382;7.074;2024-02-04T04:28:15;13.00;77.10
80937;DHT22;70395;51.382;7.074;2024-02-04T04:30:40;13.00;77.10
80937;DHT22;70395;51.382;7.074;2024-02-04T04:33:06;13.00;77.10
80937;DHT22;70395;51.382;7.074;2024-02-04T04:35:33;13.00;76.90
80937;DHT22;70395;51.382;7.074;2024-02-04T04:37:59;13.00;76.90
80937;DHT22;70395;51.382;7.074;2024-02-04T04:40:25;13.00;76.80
80937;DHT22;70395;51.382;7.074;2024-02-04T04:42:51;13.00;76.80
80937;DHT22;70395;51.382;7.074;2024-02-04T04:45:17;13.00;76.70
80937;DHT22;70395;51.382;7.074;2024-02-04T04:47:43;13.00;76.60
80937;DHT22;70395;51.382;7.074;2024-02-04T04:50:09;13.00;76.70
80937;DHT22;70395;51.382;7.074;2024-02-04T04:52:35;13.00;76.60
80937;DHT22;70395;51.382;7.074;2024-02-04T04:55:01;13.00;76.60
80937;DHT22;70395;51.382;7.074;2024-02-04T04:57:28;13.00;76.40
80937;DHT22;70395;51.382;7.074;2024-02-04T04:59:53;13.00;77.10
80937;DHT22;70395;51.382;7.074;2024-02-04T05:02:19;13.00;77.10
80937;DHT22;70395;51.382;7.074;2024-02-04T05:04:45;13.00;76.30
80937;DHT22;70395;51.382;7.074;2024-02-04T05:07:13;13.00;76.10
80937;DHT22;70395;51.382;7.074;2024-02-04T05:09:39;13.00;76.00
80937;DHT22;70395;51.382;7.074;2024-02-04T05:12:06;13.00;75.80
80937;DHT22;70395;51.382;7.074;2024-02-04T05:14:33;13.00;75.80
80937;DHT22;70395;51.382;7.074;2024-02-04T05:17:00;13.00;75.50
80937;DHT22;70395;51.382;7.074;2024-02-04T05:19:26;13.00;75.40
80937;DHT22;70395;51.382;7.074;2024-02-04T05:21:51;13.00;75.00
80937;DHT22;70395;51.382;7.074;2024-02-04T05:24:17;13.00;75.20
80937;DHT22;70395;51.382;7.074;2024-02-04T05:26:43;13.00;75.20
80937;DHT22;70395;51.382;7.074;2024-02-04T05:29:09;13.00;75.20
80937;DHT22;70395;51.382;7.074;2024-02-04T05:31:43;13.00;75.10
80937;DHT22;70395;51.382;7.074;2024-02-04T05:34:10;13.00;75.00
80937;DHT22;70395;51.382;7.074;2024-02-04T05:36:36;13.00;75.90
80937;DHT22;70395;51.382;7.074;2024-02-04T05:39:15;13.00;75.20
80937;DHT22;70395;51.382;7.074;2024-02-04T05:41:42;13.10;75.50
80937;DHT22;70395;51.382;7.074;2024-02-04T05:44:08;13.00;75.30
80937;DHT22;70395;51.382;7.074;2024-02-04T05:46:35;13.00;75.30
80937;DHT22;70395;51.382;7.074;2024-02-04T05:49:01;13.00;75.20
80937;DHT22;70395;51.382;7.074;2024-02-04T05:51:28;13.00;75.10
80937;DHT22;70395;51.382;7.074;2024-02-04T05:53:54;13.00;75.10
80937;DHT22;70395;51.382;7.074;2024-02-04T05:56:21;13.00;75.30
80937;DHT22;70395;51.382;7.074;2024-02-04T05:58:47;13.00;75.30
80937;DHT22;70395;51.382;7.074;2024-02-04T06:01:14;13.00;75.30
80937;DHT22;70395;51.382;7.074;2024-02-04T06:03:41;13.00;75.30
80937;DHT22;70395;51.382;7.074;2024-02-04T06:06:16;13.00;75.40
80937;DHT22;70395;51.382;7.074;2024-02-04T06:08:48;13.00;75.40
80937;DHT22;70395;51.382;7.074;2024-02-04T06:11:14;13.00;75.40
80937;DHT22;70395;51.382;7.074;2024-02-04T06:13:42;13.00;75.30
80937;DHT22;70395;51.382;7.074;2024-02-04T06:16:09;13.10;75.40
80937;DHT22;70395;51.382;7.074;2024-02-04T06:18:37;13.10;75.50
80937;DHT22;70395;51.382;7.074;2024-02-04T06:21:05;13.10;75.40
80937;DHT22;70395;51.382;7.074;2024-02-04T06:23:31;13.10;75.40
80937;DHT22;70395;51.382;7.074;2024-02-04T06:25:58;13.10;75.50
80937;DHT22;70395;51.382;7.074;2024-02-04T06:28:23;13.10;75.30
80937;DHT22;70395;51.382;7.074;2024-02-04T06:30:49;13.10;75.30
80937;DHT22;70395;51.382;7.074;2024-02-04T06:33:15;13.10;75.30
80937;DHT22;70395;51.382;7.074;2024-02-04T06:35:42;13.10;75.30
80937;DHT22;70395;51.382;7.074;2024-02-04T06:38:08;13.10;75.30
80937;DHT22;70395;51.382;7.074;2024-02-04T06:40:34;13.10;75.30
80937;DHT22;70395;51.382;7.074;2024-02-04T06:43:00;13.10;75.40
80937;DHT22;70395;51.382;7.074;2024-02-04T06:45:25;13.10;75.40
80937;DHT22;70395;51.382;7.074;2024-02-04T06:47:51;13.10;75.40
80937;DHT22;70395;51.382;7.074;2024-02-04T06:50:17;13.10;75.50
80937;DHT22;70395;51.382;7.074;2024-02-04T06:52:43;13.10;75.70
80937;DHT22;70395;51.382;7.074;2024-02-04T06:55:10;13.10;75.80
80937;DHT22;70395;51.382;7.074;2024-02-04T06:57:36;13.10;75.80
80937;DHT22;70395;51.382;7.074;2024-02-04T07:00:02;13.10;75.80
80937;DHT22;70395;51.382;7.074;2024-02-04T07:02:31;13.00;75.70
80937;DHT22;70395;51.382;7.074;2024-02-04T07:04:57;13.00;75.80
80937;DHT22;70395;51.382;7.074;2024-02-04T07:07:23;13.00;75.80
80937;DHT22;70395;51.382;7.074;2024-02-04T07:09:49;13.00;75.80
80937;DHT22;70395;51.382;7.074;2024-02-04T07:12:14;13.00;75.70
80937;DHT22;70395;51.382;7.074;2024-02-04T07:14:40;13.00;75.70
80937;DHT22;70395;51.382;7.074;2024-02-04T07:17:06;13.00;75.60
80937;DHT22;70395;51.382;7.074;2024-02-04T07:19:32;13.00;75.80
80937;DHT22;70395;51.382;7.074;2024-02-04T07:21:58;13.00;75.90
80937;DHT22;70395;51.382;7.074;2024-02-04T07:24:24;13.00;75.80
80937;DHT22;70395;51.382;7.074;2024-02-04T07:26:49;12.90;75.90
80937;DHT22;70395;51.382;7.074;2024-02-04T07:29:15;12.90;75.90
80937;DHT22;70395;51.382;7.074;2024-02-04T07:31:42;12.90;75.90
80937;DHT22;70395;51.382;7.074;2024-02-04T07:34:08;12.90;76.10
80937;DHT22;70395;51.382;7.074;2024-02-04T07:36:34;12.90;75.70
80937;DHT22;70395;51.382;7.074;2024-02-04T07:39:00;12.90;75.70
80937;DHT22;70395;51.382;7.074;2024-02-04T07:41:27;12.90;75.90
80937;DHT22;70395;51.382;7.074;2024-02-04T07:43:53;12.90;76.00
80937;DHT22;70395;51.382;7.074;2024-02-04T07:46:19;12.90;76.10
80937;DHT22;70395;51.382;7.074;2024-02-04T07:48:45;12.90;76.30
80937;DHT22;70395;51.382;7.074;2024-02-04T07:51:11;12.90;76.40
80937;DHT22;70395;51.382;7.074;2024-02-04T07:53:36;12.90;76.50
80937;DHT22;70395;51.382;7.074;2024-02-04T07:56:02;12.90;76.60
80937;DHT22;70395;51.382;7.074;2024-02-04T07:58:29;12.90;76.80
80937;DHT22;70395;51.382;7.074;2024-02-04T08:00:55;12.90;76.90
80937;DHT22;70395;51.382;7.074;2024-02-04T08:03:21;12.90;76.80
80937;DHT22;70395;51.382;7.074;2024-02-04T08:05:46;12.90;76.80
80937;DHT22;70395;51.382;7.074;2024-02-04T08:08:12;12.90;76.90
80937;DHT22;70395;51.382;7.074;2024-02-04T08:10:38;12.90;76.80
80937;DHT22;70395;51.382;7.074;2024-02-04T08:13:04;12.90;76.80
80937;DHT22;70395;51.382;7.074;2024-02-04T08:15:30;12.90;76.80
80937;DHT22;70395;51.382;7.074;2024-02-04T08:17:55;12.90;76.90
80937;DHT22;70395;51.382;7.074;2024-02-04T08:20:22;13.00;76.90
80937;DHT22;70395;51.382;7.074;2024-02-04T08:22:48;13.00;76.90
80937;DHT22;70395;51.382;7.074;2024-02-04T08:25:14;13.00;77.70
80937;DHT22;70395;51.382;7.074;2024-02-04T08:27:40;13.00;77.00
80937;DHT22;70395;51.382;7.074;2024-02-04T08:30:06;13.00;77.00
80937;DHT22;70395;51.382;7.074;2024-02-04T08:32:32;13.00;77.00
80937;DHT22;70395;51.382;7.074;2024-02-04T08:34:58;13.00;77.00
80937;DHT22;70395;51.382;7.074;2024-02-04T08:37:24;13.00;77.00
80937;DHT22;70395;51.382;7.074;2024-02-04T08:39:50;13.10;77.10
80937;DHT22;70395;51.382;7.074;2024-02-04T08:42:16;13.00;76.80
80937;DHT22;70395;51.382;7.074;2024-02-04T08:44:41;13.00;76.80
80937;DHT22;70395;51.382;7.074;2024-02-04T08:47:07;13.00;77.00
80937;DHT22;70395;51.382;7.074;2024-02-04T08:49:38;13.00;76.90
80937;DHT22;70395;51.382;7.074;2024-02-04T08:52:04;13.00;76.70
80937;DHT22;70395;51.382;7.074;2024-02-04T08:54:30;13.10;76.60
80937;DHT22;70395;51.382;7.074;2024-02-04T08:56:55;13.00;76.40
80937;DHT22;70395;51.382;7.074;2024-02-04T08:59:21;13.10;76.50
80937;DHT22;70395;51.382;7.074;2024-02-04T09:01:50;13.00;76.20
80937;DHT22;70395;51.382;7.074;2024-02-04T09:04:15;13.00;76.30
80937;DHT22;70395;51.382;7.074;2024-02-04T09:06:41;13.00;76.30
80937;DHT22;70395;51.382;7.074;2024-02-04T09:09:07;13.00;76.40
80937;DHT22;70395;51.382;7.074;2024-02-04T09:11:34;13.00;76.40
80937;DHT22;70395;51.382;7.074;2024-02-04T09:14:00;13.00;76.40
80937;DHT22;70395;51.382;7.074;2024-02-04T09:16:26;13.00;76.30
80937;DHT22;70395;51.382;7.074;2024-02-04T09:18:53;12.90;76.20
80937;DHT22;70395;51.382;7.074;2024-02-04T09:21:19;13.00;76.40
80937;DHT22;70395;51.382;7.074;2024-02-04T09:23:45;13.00;76.30
80937;DHT22;70395;51.382;7.074;2024-02-04T09:26:11;13.00;76.20
80937;DHT22;70395;51.382;7.074;2024-02-04T09:28:37;13.00;76.20
80937;DHT22;70395;51.382;7.074;2024-02-04T09:31:03;13.00;76.10
80937;DHT22;70395;51.382;7.074;2024-02-04T09:33:29;13.00;76.00
80937;DHT22;70395;51.382;7.074;2024-02-04T09:35:55;13.10;75.90
80937;DHT22;70395;51.382;7.074;2024-02-04T09:38:21;13.10;75.80
80937;DHT22;70395;51.382;7.074;2024-02-04T09:40:47;13.10;75.90
80937;DHT22;70395;51.382;7.074;2024-02-04T09:43:13;13.10;75.80
80937;DHT22;70395;51.382;7.074;2024-02-04T09:45:40;13.10;75.70
80937;DHT22;70395;51.382;7.074;2024-02-04T09:48:07;13.20;75.40
80937;DHT22;70395;51.382;7.074;2024-02-04T09:50:34;13.20;75.30
80937;DHT22;70395;51.382;7.074;2024-02-04T09:53:00;13.20;76.10
80937;DHT22;70395;51.382;7.074;2024-02-04T09:55:29;13.20;75.40
80937;DHT22;70395;51.382;7.074;2024-02-04T09:57:56;13.20;75.50
80937;DHT22;70395;51.382;7.074;2024-02-04T10:00:23;13.30;75.60
80937;DHT22;70395;51.382;7.074;2024-02-04T10:02:55;13.30;75.60
80937;DHT22;70395;51.382;7.074;2024-02-04T10:05:21;13.30;75.60
80937;DHT22;70395;51.382;7.074;2024-02-04T10:07:47;13.30;75.60
80937;DHT22;70395;51.382;7.074;2024-02-04T10:10:13;13.30;75.60
80937;DHT22;70395;51.382;7.074;2024-02-04T10:12:39;13.30;75.60
80937;DHT22;70395;51.382;7.074;2024-02-04T10:15:07;13.30;75.60
80937;DHT22;70395;51.382;7.074;2024-02-04T10:17:34;13.30;75.60
80937;DHT22;70395;51.382;7.074;2024-02-04T10:20:00;13.30;75.60
80937;DHT22;70395;51.382;7.074;2024-02-04T10:22:27;13.30;75.50
80937;DHT22;70395;51.382;7.074;2024-02-04T10:25:04;13.30;75.70
80937;DHT22;70395;51.382;7.074;2024-02-04T10:27:31;13.20;75.60
80937;DHT22;70395;51.382;7.074;2024-02-04T10:29:57;13.20;75.70
80937;DHT22;70395;51.382;7.074;2024-02-04T10:32:23;13.20;75.80
80937;DHT22;70395;51.382;7.074;2024-02-04T10:34:49;13.20;76.20
80937;DHT22;70395;51.382;7.074;2024-02-04T10:37:15;13.20;76.20
80937;DHT22;70395;51.382;7.074;2024-02-04T10:39:41;13.30;76.20
80937;DHT22;70395;51.382;7.074;2024-02-04T10:42:08;13.30;76.10
80937;DHT22;70395;51.382;7.074;2024-02-04T10:44:36;13.40;76.40
80937;DHT22;70395;51.382;7.074;2024-02-04T10:47:06;13.40;76.30
80937;DHT22;70395;51.382;7.074;2024-02-04T10:49:37;13.50;76.20
80937;DHT22;70395;51.382;7.074;2024-02-04T10:52:10;13.60;75.90
80937;DHT22;70395;51.382;7.074;2024-02-04T10:54:38;13.60;75.70
80937;DHT22;70395;51.382;7.074;2024-02-04T10:57:13;13.70;74.80
80937;DHT22;70395;51.382;7.074;2024-02-04T10:59:43;13.80;75.10
80937;DHT22;70395;51.382;7.074;2024-02-04T11:02:11;13.80;75.00
80937;DHT22;70395;51.382;7.074;2024-02-04T11:04:38;13.90;74.60
80937;DHT22;70395;51.382;7.074;2024-02-04T11:07:05;13.90;74.70
80937;DHT22;70395;51.382;7.074;2024-02-04T11:09:32;13.90;74.20
80937;DHT22;70395;51.382;7.074;2024-02-04T11:11:59;14.00;74.30
80937;DHT22;70395;51.382;7.074;2024-02-04T11:14:27;14.00;73.70
80937;DHT22;70395;51.382;7.074;2024-02-04T11:17:20;14.00;72.50
80937;DHT22;70395;51.382;7.074;2024-02-04T11:26:13;14.00;73.50
80937;DHT22;70395;51.382;7.074;2024-02-04T11:28:42;14.10;73.50
80937;DHT22;70395;51.382;7.074;2024-02-04T11:31:17;14.00;73.60
80937;DHT22;70395;51.382;7.074;2024-02-04T11:33:44;14.00;73.50
80937;DHT22;70395;51.382;7.074;2024-02-04T11:36:14;14.00;73.80
80937;DHT22;70395;51.382;7.074;2024-02-04T11:38:43;14.00;73.90
80937;DHT22;70395;51.382;7.074;2024-02-04T11:41:25;14.00;73.80
80937;DHT22;70395;51.382;7.074;2024-02-04T11:43:53;14.00;74.00
80937;DHT22;70395;51.382;7.074;2024-02-04T11:46:21;13.90;74.20
80937;DHT22;70395;51.382;7.074;2024-02-04T11:48:54;13.90;74.40
80937;DHT22;70395;51.382;7.074;2024-02-04T11:51:23;13.90;74.80
80937;DHT22;70395;51.382;7.074;2024-02-04T11:53:51;13.90;75.00
80937;DHT22;70395;51.382;7.074;2024-02-04T11:56:18;13.90;75.10
80937;DHT22;70395;51.382;7.074;2024-02-04T11:58:45;13.80;75.00
80937;DHT22;70395;51.382;7.074;2024-02-04T12:01:12;13.80;75.00
80937;DHT22;70395;51.382;7.074;2024-02-04T12:03:38;13.80;75.00
80937;DHT22;70395;51.382;7.074;2024-02-04T12:06:04;13.80;75.00
80937;DHT22;70395;51.382;7.074;2024-02-04T12:08:33;13.80;75.00
80937;DHT22;70395;51.382;7.074;2024-02-04T12:11:00;13.80;75.00
80937;DHT22;70395;51.382;7.074;2024-02-04T12:13:31;13.80;75.00
80937;DHT22;70395;51.382;7.074;2024-02-04T12:15:59;13.80;75.10
80937;DHT22;70395;51.382;7.074;2024-02-04T12:18:26;13.80;74.80
80937;DHT22;70395;51.382;7.074;2024-02-04T12:20:51;13.80;75.00
80937;DHT22;70395;51.382;7.074;2024-02-04T12:23:18;13.70;75.00
80937;DHT22;70395;51.382;7.074;2024-02-04T12:25:45;13.70;75.10
80937;DHT22;70395;51.382;7.074;2024-02-04T12:28:11;13.70;75.30
80937;DHT22;70395;51.382;7.074;2024-02-04T12:30:37;13.70;75.30
80937;DHT22;70395;51.382;7.074;2024-02-04T12:33:04;13.70;75.20
80937;DHT22;70395;51.382;7.074;2024-02-04T12:35:31;13.70;75.40
80937;DHT22;70395;51.382;7.074;2024-02-04T12:37:58;13.70;75.50
80937;DHT22;70395;51.382;7.074;2024-02-04T12:40:29;13.70;75.30
80937;DHT22;70395;51.382;7.074;2024-02-04T12:42:58;13.60;75.30
80937;DHT22;70395;51.382;7.074;2024-02-04T12:45:26;13.60;75.40
80937;DHT22;70395;51.382;7.074;2024-02-04T12:47:53;13.60;75.50
80937;DHT22;70395;51.382;7.074;2024-02-04T12:50:21;13.60;75.60
80937;DHT22;70395;51.382;7.074;2024-02-04T12:53:07;13.60;75.60
80937;DHT22;70395;51.382;7.074;2024-02-04T12:55:35;13.60;75.30
80937;DHT22;70395;51.382;7.074;2024-02-04T12:58:06;13.70;75.70
80937;DHT22;70395;51.382;7.074;2024-02-04T13:00:34;13.60;75.50
80937;DHT22;70395;51.382;7.074;2024-02-04T13:03:05;13.60;75.70
80937;DHT22;70395;51.382;7.074;2024-02-04T13:05:33;13.60;75.90
80937;DHT22;70395;51.382;7.074;2024-02-04T13:08:02;13.60;75.70
80937;DHT22;70395;51.382;7.074;2024-02-04T13:10:35;13.60;75.70
80937;DHT22;70395;51.382;7.074;2024-02-04T13:13:06;13.60;75.80
80937;DHT22;70395;51.382;7.074;2024-02-04T13:15:40;13.60;76.00
80937;DHT22;70395;51.382;7.074;2024-02-04T13:18:09;13.50;75.90
80937;DHT22;70395;51.382;7.074;2024-02-04T13:20:41;13.50;76.10
80937;DHT22;70395;51.382;7.074;2024-02-04T13:23:08;13.50;76.20
80937;DHT22;70395;51.382;7.074;2024-02-04T13:25:34;13.50;76.20
80937;DHT22;70395;51.382;7.074;2024-02-04T13:28:00;13.50;76.30
80937;DHT22;70395;51.382;7.074;2024-02-04T13:30:27;13.50;76.30
80937;DHT22;70395;51.382;7.074;2024-02-04T13:32:53;13.50;76.40
80937;DHT22;70395;51.382;7.074;2024-02-04T13:35:19;13.50;76.40
80937;DHT22;70395;51.382;7.074;2024-02-04T13:37:46;13.50;76.60
80937;DHT22;70395;51.382;7.074;2024-02-04T13:40:14;13.50;76.80
80937;DHT22;70395;51.382;7.074;2024-02-04T13:42:41;13.50;76.70
80937;DHT22;70395;51.382;7.074;2024-02-04T13:45:07;13.50;76.70
80937;DHT22;70395;51.382;7.074;2024-02-04T13:47:34;13.50;76.70
80937;DHT22;70395;51.382;7.074;2024-02-04T13:50:00;13.40;76.70
80937;DHT22;70395;51.382;7.074;2024-02-04T13:52:27;13.40;76.90
80937;DHT22;70395;51.382;7.074;2024-02-04T13:54:53;13.40;76.90
80937;DHT22;70395;51.382;7.074;2024-02-04T13:57:19;13.40;76.90
80937;DHT22;70395;51.382;7.074;2024-02-04T13:59:46;13.40;77.00
80937;DHT22;70395;51.382;7.074;2024-02-04T14:02:11;13.40;77.10
80937;DHT22;70395;51.382;7.074;2024-02-04T14:04:37;13.40;77.30
80937;DHT22;70395;51.382;7.074;2024-02-04T14:07:03;13.40;77.30
80937;DHT22;70395;51.382;7.074;2024-02-04T14:09:29;13.40;77.30
80937;DHT22;70395;51.382;7.074;2024-02-04T14:11:55;13.40;77.20
80937;DHT22;70395;51.382;7.074;2024-02-04T14:14:23;13.40;77.20
80937;DHT22;70395;51.382;7.074;2024-02-04T14:16:49;13.40;77.20
80937;DHT22;70395;51.382;7.074;2024-02-04T14:19:16;13.40;77.10
80937;DHT22;70395;51.382;7.074;2024-02-04T14:21:42;13.30;76.90
80937;DHT22;70395;51.382;7.074;2024-02-04T14:24:08;13.40;77.10
80937;DHT22;70395;51.382;7.074;2024-02-04T14:26:34;13.40;77.20
80937;DHT22;70395;51.382;7.074;2024-02-04T14:29:00;13.40;77.20
80937;DHT22;70395;51.382;7.074;2024-02-04T14:31:26;13.40;77.10
80937;DHT22;70395;51.382;7.074;2024-02-04T14:33:52;13.40;77.00
80937;DHT22;70395;51.382;7.074;2024-02-04T14:36:18;13.40;77.00
80937;DHT22;70395;51.382;7.074;2024-02-04T14:38:45;13.40;76.90
80937;DHT22;70395;51.382;7.074;2024-02-04T14:41:11;13.40;76.90
80937;DHT22;70395;51.382;7.074;2024-02-04T14:43:37;13.40;76.70
80937;DHT22;70395;51.382;7.074;2024-02-04T14:46:04;13.40;77.30
80937;DHT22;70395;51.382;7.074;2024-02-04T14:48:30;13.40;76.70
80937;DHT22;70395;51.382;7.074;2024-02-04T14:50:56;13.40;76.50
80937;DHT22;70395;51.382;7.074;2024-02-04T14:53:23;13.40;76.50
80937;DHT22;70395;51.382;7.074;2024-02-04T14:55:49;13.40;76.40
80937;DHT22;70395;51.382;7.074;2024-02-04T14:58:15;13.40;76.30
80937;DHT22;70395;51.382;7.074;2024-02-04T15:00:41;13.40;76.30
80937;DHT22;70395;51.382;7.074;2024-02-04T15:03:07;13.40;76.40
80937;DHT22;70395;51.382;7.074;2024-02-04T15:05:35;13.40;76.20
80937;DHT22;70395;51.382;7.074;2024-02-04T15:08:01;13.40;76.10
80937;DHT22;70395;51.382;7.074;2024-02-04T15:10:26;13.50;76.30
80937;DHT22;70395;51.382;7.074;2024-02-04T15:12:53;13.50;76.20
80937;DHT22;70395;51.382;7.074;2024-02-04T15:15:20;13.50;75.90
80937;DHT22;70395;51.382;7.074;2024-02-04T15:17:46;13.50;75.90
80937;DHT22;70395;51.382;7.074;2024-02-04T15:20:12;13.50;75.70
80937;DHT22;70395;51.382;7.074;2024-02-04T15:22:41;13.50;75.80
80937;DHT22;70395;51.382;7.074;2024-02-04T15:25:07;13.50;75.70
80937;DHT22;70395;51.382;7.074;2024-02-04T15:27:35;13.50;75.40
80937;DHT22;70395;51.382;7.074;2024-02-04T15:30:02;13.50;75.40
80937;DHT22;70395;51.382;7.074;2024-02-04T15:32:29;13.40;75.40
80937;DHT22;70395;51.382;7.074;2024-02-04T15:34:55;13.50;75.70
80937;DHT22;70395;51.382;7.074;2024-02-04T15:37:21;13.50;75.70